createdAt,value
2023-05-12T00:02:04.338Z,99246.34
2023-05-12T00:04:30.674Z,99237.69
2023-05-12T00:06:57.013Z,99241.06
2023-05-12T00:09:23.406Z,99228.91
2023-05-12T00:11:49.929Z,99240.13
2023-05-12T00:14:16.287Z,99238.31
2023-05-12T00:16:42.752Z,99244.53
2023-05-12T00:19:09.107Z,99227.59
2023-05-12T00:21:35.524Z,99219.91
2023-05-12T00:24:01.881Z,99234.53
2023-05-12T00:26:28.169Z,99237.41
2023-05-12T00:28:54.589Z,99226.34
2023-05-12T00:31:20.913Z,99230.56
2023-05-12T00:33:47.392Z,99237.94
2023-05-12T00:36:13.689Z,99229.59
2023-05-12T00:38:40.063Z,99214.53
2023-05-12T00:41:06.603Z,99230.34
2023-05-12T00:43:33.001Z,99226.22
2023-05-12T00:46:00.948Z,99218.13
2023-05-12T00:48:27.348Z,99235.09
2023-05-12T00:50:55.836Z,99229.94
2023-05-12T00:53:22.314Z,99231.94
2023-05-12T00:55:48.695Z,99233.53
2023-05-12T00:58:15.107Z,99233.44
2023-05-12T01:00:41.476Z,99235.31
2023-05-12T01:03:08.287Z,99235.31
2023-05-12T01:05:54.474Z,99234.38
2023-05-12T01:08:21.622Z,99236.50
2023-05-12T01:10:47.922Z,99232.06
2023-05-12T01:13:14.541Z,99229.22
2023-05-12T01:15:46.305Z,99215.53
2023-05-12T01:18:15.570Z,99227.66
2023-05-12T01:20:43.393Z,99231.75
2023-05-12T01:23:09.871Z,99236.19
2023-05-12T01:25:39.315Z,99245.81
2023-05-12T01:28:06.861Z,99233.06
2023-05-12T01:30:34.293Z,99240.84
2023-05-12T01:33:01.551Z,99236.75
2023-05-12T01:35:28.052Z,99240.97
2023-05-12T01:37:54.336Z,99227.47
2023-05-12T01:40:21.049Z,99222.53
2023-05-12T01:42:47.575Z,99235.28
2023-05-12T01:45:14.060Z,99243.41
2023-05-12T01:47:40.576Z,99239.22
2023-05-12T01:50:07.063Z,99232.47
2023-05-12T01:52:33.569Z,99235.72
2023-05-12T01:55:00.195Z,99247.41
2023-05-12T01:57:26.611Z,99242.56
2023-05-12T01:59:52.901Z,99237.28
2023-05-12T02:02:19.292Z,99248.78
2023-05-12T02:04:45.747Z,99248.06
2023-05-12T02:07:12.333Z,99249.00
2023-05-12T02:09:38.716Z,99246.06
2023-05-12T02:12:06.564Z,99250.28
2023-05-12T02:14:32.901Z,99254.50
2023-05-12T02:16:59.400Z,99262.19
2023-05-12T02:19:25.766Z,99254.38
2023-05-12T02:21:52.116Z,99256.69
2023-05-12T02:24:18.504Z,99242.59
2023-05-12T02:26:44.814Z,99256.41
2023-05-12T02:29:11.171Z,99253.97
2023-05-12T02:31:37.938Z,99264.41
2023-05-12T02:34:06.498Z,99256.63
2023-05-12T02:36:33.450Z,99261.69
2023-05-12T02:39:00.140Z,99262.63
2023-05-12T02:41:26.474Z,99256.00
2023-05-12T02:43:52.908Z,99249.13
2023-05-12T02:46:19.254Z,99248.31
2023-05-12T02:48:45.580Z,99249.13
2023-05-12T02:51:12.068Z,99252.28
2023-05-12T02:53:38.435Z,99257.66
2023-05-12T02:56:04.980Z,99250.84
2023-05-12T02:58:31.372Z,99262.22
2023-05-12T03:01:09.353Z,99245.88
2023-05-12T03:03:37.129Z,99254.41
2023-05-12T03:06:03.760Z,99253.03
2023-05-12T03:08:30.275Z,99246.41
2023-05-12T03:10:56.906Z,99251.66
2023-05-12T03:13:23.603Z,99249.91
2023-05-12T03:15:49.912Z,99251.00
2023-05-12T03:18:16.336Z,99255.34
2023-05-12T03:20:42.767Z,99255.88
2023-05-12T03:23:09.310Z,99254.59
2023-05-12T03:25:35.695Z,99256.28
2023-05-12T03:28:02.603Z,99258.91
2023-05-12T03:30:29.255Z,99257.81
2023-05-12T03:32:55.712Z,99259.03
2023-05-12T03:35:22.141Z,99258.19
2023-05-12T03:37:48.532Z,99262.59
2023-05-12T03:40:14.868Z,99261.16
2023-05-12T03:42:41.624Z,99263.56
2023-05-12T03:45:08.550Z,99254.50
2023-05-12T03:47:35.025Z,99263.69
2023-05-12T03:50:01.484Z,99262.19
2023-05-12T03:52:27.909Z,99257.13
2023-05-12T03:54:54.261Z,99261.69
2023-05-12T03:57:20.577Z,99262.63
2023-05-12T03:59:47.069Z,99267.16
2023-05-12T04:02:13.392Z,99256.72
2023-05-12T04:04:39.818Z,99264.53
2023-05-12T04:07:06.111Z,99274.66
2023-05-12T04:09:32.866Z,99264.31
2023-05-12T04:11:59.177Z,99277.91
2023-05-12T04:14:35.250Z,99272.22
2023-05-12T04:17:08.547Z,99278.66
2023-05-12T04:19:34.951Z,99273.19
2023-05-12T04:22:01.262Z,99279.84
2023-05-12T04:24:27.589Z,99276.34
2023-05-12T04:26:53.983Z,99275.72
2023-05-12T04:29:20.285Z,99263.91
2023-05-12T04:31:46.760Z,99283.53
2023-05-12T04:34:13.236Z,99280.66
2023-05-12T04:36:39.796Z,99273.47
2023-05-12T04:39:06.228Z,99281.19
2023-05-12T04:41:32.647Z,99284.03
2023-05-12T04:44:00.671Z,99276.00
2023-05-12T04:46:27.372Z,99283.72
2023-05-12T04:48:53.723Z,99286.25
2023-05-12T04:51:20.057Z,99284.25
2023-05-12T04:53:46.466Z,99282.53
2023-05-12T04:56:12.774Z,99293.06
2023-05-12T04:58:39.226Z,99275.88
2023-05-12T05:01:05.965Z,99285.88
2023-05-12T05:03:33.004Z,99292.19
2023-05-12T05:05:59.356Z,99293.16
2023-05-12T05:08:25.662Z,99280.09
2023-05-12T05:10:52.224Z,99284.06
2023-05-12T05:13:18.619Z,99283.22
2023-05-12T05:15:55.052Z,99294.94
2023-05-12T05:18:24.017Z,99295.09
2023-05-12T05:20:57.809Z,99300.91
2023-05-12T05:23:25.169Z,99300.69
2023-05-12T05:25:51.473Z,99308.28
2023-05-12T05:28:17.800Z,99295.41
2023-05-12T05:30:44.285Z,99308.06
2023-05-12T05:33:10.999Z,99288.44
2023-05-12T05:35:37.679Z,99314.34
2023-05-12T05:38:04.095Z,99310.75
2023-05-12T05:40:38.801Z,99312.13
2023-05-12T05:43:11.591Z,99317.44
2023-05-12T05:45:38.322Z,99319.28
2023-05-12T05:48:04.940Z,99315.03
2023-05-12T05:50:32.281Z,99316.59
2023-05-12T05:52:58.657Z,99312.50
2023-05-12T05:55:25.763Z,99310.06
2023-05-12T05:57:52.071Z,99325.47
2023-05-12T06:00:21.151Z,99314.06
2023-05-12T06:02:47.724Z,99332.03
2023-05-12T06:05:14.541Z,99330.34
2023-05-12T06:07:41.739Z,99324.94
2023-05-12T06:10:08.650Z,99328.94
2023-05-12T06:12:37.480Z,99321.94
2023-05-12T06:15:04.117Z,99314.13
2023-05-12T06:17:32.693Z,99335.69
2023-05-12T06:20:01.548Z,99332.00
2023-05-12T06:22:28.094Z,99335.59
2023-05-12T06:24:54.416Z,99328.53
2023-05-12T06:27:20.959Z,99341.06
2023-05-12T06:29:47.363Z,99334.53
2023-05-12T06:32:13.966Z,99330.59
2023-05-12T06:34:40.809Z,99329.16
2023-05-12T06:37:07.137Z,99334.13
2023-05-12T06:39:34.591Z,99321.13
2023-05-12T06:42:00.920Z,99321.59
2023-05-12T06:44:27.240Z,99322.47
2023-05-12T06:46:53.992Z,99330.06
2023-05-12T06:49:20.567Z,99320.31
2023-05-12T06:51:47.253Z,99324.88
2023-05-12T06:54:13.614Z,99323.94
2023-05-12T06:56:40.549Z,99326.94
2023-05-12T06:59:07.890Z,99315.00
2023-05-12T07:01:35.078Z,99322.59
2023-05-12T07:04:01.458Z,99327.91
2023-05-12T07:06:28.339Z,99323.78
2023-05-12T07:08:55.767Z,99334.88
2023-05-12T07:11:23.246Z,99333.53
2023-05-12T07:13:50.883Z,99338.25
2023-05-12T07:16:18.230Z,99340.38
2023-05-12T07:18:45.565Z,99336.75
2023-05-12T07:21:13.034Z,99343.53
2023-05-12T07:23:39.699Z,99326.44
2023-05-12T07:26:07.498Z,99337.25
2023-05-12T07:28:35.745Z,99333.84
2023-05-12T07:31:05.006Z,99324.34
2023-05-12T07:33:31.438Z,99324.78
2023-05-12T07:36:03.637Z,99322.00
2023-05-12T07:38:31.367Z,99320.56
2023-05-12T07:40:58.513Z,99311.66
2023-05-12T07:43:25.039Z,99325.19
2023-05-12T07:45:51.777Z,99327.34
2023-05-12T07:48:18.098Z,99325.00
2023-05-12T07:50:44.919Z,99313.13
2023-05-12T07:53:11.317Z,99324.00
2023-05-12T07:55:37.747Z,99316.75
2023-05-12T07:58:05.046Z,99301.88
2023-05-12T08:00:32.093Z,99300.91
2023-05-12T08:02:58.665Z,99304.47
2023-05-12T08:05:25.282Z,99299.22
2023-05-12T08:07:52.481Z,99309.47
2023-05-12T08:10:20.574Z,99322.41
2023-05-12T08:12:48.089Z,99304.53
2023-05-12T08:15:14.488Z,99290.75
2023-05-12T08:17:41.088Z,99301.50
2023-05-12T08:20:08.633Z,99299.25
2023-05-12T08:22:35.529Z,99288.53
2023-05-12T08:25:02.004Z,99295.75
2023-05-12T08:27:28.692Z,99298.75
2023-05-12T08:29:55.259Z,99295.66
2023-05-12T08:32:21.752Z,99302.75
2023-05-12T08:34:48.150Z,99302.13
2023-05-12T08:37:14.963Z,99298.19
2023-05-12T08:39:41.316Z,99299.28
2023-05-12T08:42:30.922Z,99296.91
2023-05-12T08:45:00.164Z,99305.06
2023-05-12T08:47:27.662Z,99299.81
2023-05-12T08:50:02.837Z,99297.34
2023-05-12T08:52:31.696Z,99303.66
2023-05-12T08:55:00.104Z,99296.00
2023-05-12T08:57:29.411Z,99296.16
2023-05-12T08:59:58.333Z,99312.47
2023-05-12T09:02:25.491Z,99307.66
2023-05-12T09:04:52.588Z,99295.03
2023-05-12T09:07:19.648Z,99309.66
2023-05-12T09:09:49.059Z,99311.72
2023-05-12T09:12:18.730Z,99304.53
2023-05-12T09:14:48.433Z,99313.13
2023-05-12T09:17:14.811Z,99310.81
2023-05-12T09:19:42.012Z,99301.53
2023-05-12T09:22:08.367Z,99315.78
2023-05-12T09:24:46.114Z,99323.44
2023-05-12T09:27:12.667Z,99313.66
2023-05-12T09:29:59.225Z,99311.66
2023-05-12T09:32:33.712Z,99327.03
2023-05-12T09:35:05.492Z,99318.75
2023-05-12T09:37:33.945Z,99316.63
2023-05-12T09:40:09.546Z,99324.94
2023-05-12T09:42:36.161Z,99328.72
2023-05-12T09:45:06.869Z,99334.03
2023-05-12T09:47:39.448Z,99313.19
2023-05-12T09:50:08.214Z,99318.09
2023-05-12T09:52:39.450Z,99320.47
2023-05-12T09:55:11.143Z,99314.28
2023-05-12T09:57:44.682Z,99327.56
2023-05-12T10:00:30.282Z,99316.66
2023-05-12T10:03:09.552Z,99303.91
2023-05-12T10:05:39.453Z,99301.91
2023-05-12T10:08:07.805Z,99313.81
2023-05-12T10:10:34.304Z,99310.63
2023-05-12T10:13:01.096Z,99305.09
2023-05-12T10:15:28.070Z,99306.75
2023-05-12T10:17:55.054Z,99290.81
2023-05-12T10:20:22.573Z,99287.13
2023-05-12T10:22:49.831Z,99299.91
2023-05-12T10:25:17.105Z,99296.03
2023-05-12T10:27:44.581Z,99299.00
2023-05-12T10:30:11.767Z,99279.94
2023-05-12T10:32:38.193Z,99295.06
2023-05-12T10:35:09.482Z,99297.09
2023-05-12T10:37:36.421Z,99296.81
2023-05-12T10:40:03.387Z,99282.44
2023-05-12T10:42:38.797Z,99281.66
2023-05-12T10:45:19.573Z,99286.31
2023-05-12T10:47:47.241Z,99289.97
2023-05-12T10:50:13.955Z,99288.00
2023-05-12T10:53:00.691Z,99285.94
2023-05-12T10:55:44.000Z,99296.34
2023-05-12T10:58:12.562Z,99298.06
2023-05-12T11:00:51.948Z,99298.44
2023-05-12T11:03:25.837Z,99290.38
2023-05-12T11:06:04.685Z,99295.56
2023-05-12T11:08:32.406Z,99286.34
2023-05-12T11:10:59.661Z,99303.75
2023-05-12T11:13:26.709Z,99278.34
2023-05-12T11:15:55.335Z,99293.03
2023-05-12T11:18:25.013Z,99297.72
2023-05-12T11:20:51.719Z,99297.56
2023-05-12T11:23:26.687Z,99298.41
2023-05-12T11:25:54.685Z,99291.88
2023-05-12T11:28:21.334Z,99286.69
2023-05-12T11:30:55.181Z,99292.38
2023-05-12T11:33:23.440Z,99295.84
2023-05-12T11:35:50.694Z,99301.72
2023-05-12T11:38:18.432Z,99288.34
2023-05-12T11:40:45.321Z,99291.72
2023-05-12T11:43:12.945Z,99287.41
2023-05-12T11:45:39.324Z,99286.88
2023-05-12T11:48:11.805Z,99293.91
2023-05-12T11:50:41.183Z,99291.22
2023-05-12T11:53:12.517Z,99293.09
2023-05-12T11:55:47.885Z,99286.72
2023-05-12T11:58:18.271Z,99304.78
2023-05-12T12:00:44.730Z,99289.69
2023-05-12T12:03:13.887Z,99285.69
2023-05-12T12:05:42.827Z,99285.16
2023-05-12T12:08:14.785Z,99294.69
2023-05-12T12:10:45.664Z,99301.41
2023-05-12T12:13:22.240Z,99292.88
2023-05-12T12:15:50.693Z,99289.25
2023-05-12T12:18:17.473Z,99285.34
2023-05-12T12:20:44.802Z,99288.91
2023-05-12T12:23:11.348Z,99296.56
2023-05-12T12:25:37.739Z,99292.75
2023-05-12T12:28:06.169Z,99302.25
2023-05-12T12:30:32.737Z,99283.63
2023-05-12T12:32:59.055Z,99293.22
2023-05-12T12:35:25.612Z,99285.53
2023-05-12T12:37:52.404Z,99297.19
2023-05-12T12:40:19.651Z,99298.03
2023-05-12T12:42:45.979Z,99298.75
2023-05-12T12:45:12.528Z,99298.41
2023-05-12T12:47:39.051Z,99304.59
2023-05-12T12:50:07.506Z,99304.59
2023-05-12T12:52:33.838Z,99300.09
2023-05-12T12:55:00.275Z,99298.25
2023-05-12T12:57:26.699Z,99295.56
2023-05-12T12:59:53.071Z,99304.97
2023-05-12T13:02:19.676Z,99298.78
2023-05-12T13:04:46.139Z,99292.56
2023-05-12T13:07:13.619Z,99296.06
2023-05-12T13:09:39.975Z,99301.91
2023-05-12T13:12:06.859Z,99293.72
2023-05-12T13:14:43.181Z,99291.88
2023-05-12T13:17:11.043Z,99296.38
2023-05-12T13:19:38.845Z,99297.25
2023-05-12T13:22:05.757Z,99299.56
2023-05-12T13:24:32.119Z,99292.22
2023-05-12T13:26:58.541Z,99290.03
2023-05-12T13:29:24.893Z,99288.56
2023-05-12T13:31:52.061Z,99305.09
2023-05-12T13:34:18.496Z,99297.25
2023-05-12T13:36:48.315Z,99305.59
2023-05-12T13:39:14.824Z,99301.91
2023-05-12T13:41:41.128Z,99277.63
2023-05-12T13:44:07.496Z,99273.94
2023-05-12T13:46:33.913Z,99288.81
2023-05-12T13:49:00.314Z,99295.97
2023-05-12T13:51:26.789Z,99296.44
2023-05-12T13:53:53.160Z,99292.28
2023-05-12T13:56:19.497Z,99287.66
2023-05-12T13:58:45.936Z,99292.03
2023-05-12T14:01:12.476Z,99294.19
2023-05-12T14:03:38.913Z,99289.19
2023-05-12T14:06:05.419Z,99279.31
2023-05-12T14:08:32.030Z,99288.38
2023-05-12T14:10:58.483Z,99281.19
2023-05-12T14:13:24.875Z,99287.06
2023-05-12T14:15:51.951Z,99271.16
2023-05-12T14:18:19.003Z,99274.69
2023-05-12T14:20:46.017Z,99262.41
2023-05-12T14:23:12.816Z,99278.28
2023-05-12T14:25:39.119Z,99263.56
2023-05-12T14:28:05.579Z,99267.13
2023-05-12T14:30:32.308Z,99276.28
2023-05-12T14:32:58.722Z,99266.56
2023-05-12T14:35:25.200Z,99285.16
2023-05-12T14:37:51.601Z,99275.00
2023-05-12T14:40:18.130Z,99293.75
2023-05-12T14:42:44.627Z,99287.56
2023-05-12T14:45:11.126Z,99287.03
2023-05-12T14:47:37.698Z,99283.34
2023-05-12T14:50:04.391Z,99277.50
2023-05-12T14:52:30.980Z,99294.44
2023-05-12T14:54:57.533Z,99286.41
2023-05-12T14:57:23.929Z,99280.16
2023-05-12T14:59:50.257Z,99292.56
2023-05-12T15:02:16.599Z,99299.94
2023-05-12T15:04:42.956Z,99282.91
2023-05-12T15:07:09.293Z,99289.38
2023-05-12T15:09:35.720Z,99277.34
2023-05-12T15:12:02.121Z,99284.88
2023-05-12T15:14:28.441Z,99283.53
2023-05-12T15:16:54.996Z,99283.69
2023-05-12T15:19:21.446Z,99273.50
2023-05-12T15:21:47.852Z,99285.00
2023-05-12T15:24:14.261Z,99285.34
2023-05-12T15:26:40.680Z,99278.53
2023-05-12T15:29:09.435Z,99288.34
2023-05-12T15:31:35.847Z,99292.03
2023-05-12T15:34:02.443Z,99286.19
2023-05-12T15:36:28.843Z,99288.50
2023-05-12T15:38:55.252Z,99290.34
2023-05-12T15:41:21.629Z,99282.47
2023-05-12T15:43:48.016Z,99287.44
2023-05-12T15:46:14.466Z,99301.25
2023-05-12T15:48:40.841Z,99283.97
2023-05-12T15:51:07.718Z,99292.47
2023-05-12T15:53:34.234Z,99300.31
2023-05-12T15:56:02.030Z,99298.38
2023-05-12T15:58:28.605Z,99297.88
2023-05-12T16:00:55.517Z,99293.00
2023-05-12T16:03:21.930Z,99295.94
2023-05-12T16:05:48.910Z,99299.16
2023-05-12T16:08:15.338Z,99292.28
2023-05-12T16:10:41.648Z,99312.03
2023-05-12T16:13:08.051Z,99309.06
2023-05-12T16:15:34.350Z,99332.91
2023-05-12T16:18:00.786Z,99317.91
2023-05-12T16:20:27.232Z,99299.41
2023-05-12T16:22:53.717Z,99304.53
2023-05-12T16:25:20.367Z,99305.94
2023-05-12T16:27:47.089Z,99313.22
2023-05-12T16:30:13.947Z,99302.78
2023-05-12T16:32:40.271Z,99309.94
2023-05-12T16:35:07.426Z,99305.53
2023-05-12T16:37:33.979Z,99310.88
2023-05-12T16:40:00.437Z,99311.66
2023-05-12T16:42:26.998Z,99307.91
2023-05-12T16:44:53.804Z,99305.88
2023-05-12T16:47:20.485Z,99304.03
2023-05-12T16:49:46.870Z,99316.84
2023-05-12T16:52:13.253Z,99322.16
2023-05-12T16:54:39.551Z,99316.53
2023-05-12T16:57:06.235Z,99327.00
2023-05-12T16:59:32.914Z,99330.03
2023-05-12T17:01:59.284Z,99319.66
2023-05-12T17:04:25.734Z,99322.69
2023-05-12T17:06:52.039Z,99327.34
2023-05-12T17:09:18.593Z,99333.41
2023-05-12T17:11:44.903Z,99335.28
2023-05-12T17:14:11.207Z,99331.78
2023-05-12T17:16:37.725Z,99335.72
2023-05-12T17:21:33.320Z,99331.94
2023-05-12T17:23:59.752Z,99339.78
2023-05-12T17:26:26.062Z,99360.03
2023-05-12T17:28:52.563Z,99347.22
2023-05-12T17:31:19.032Z,99372.66
2023-05-12T17:33:45.353Z,99364.31
2023-05-12T17:36:13.347Z,99371.78
2023-05-12T17:38:40.654Z,99368.00
2023-05-12T17:41:07.338Z,99367.09
2023-05-12T17:43:33.734Z,99351.25
2023-05-12T17:46:00.069Z,99374.09
2023-05-12T17:48:26.628Z,99370.06
2023-05-12T17:50:52.945Z,99352.75
2023-05-12T17:53:19.610Z,99357.91
2023-05-12T17:55:45.919Z,99360.53
2023-05-12T17:58:12.325Z,99374.28
2023-05-12T18:00:38.664Z,99375.69
2023-05-12T18:03:05.308Z,99365.50
2023-05-12T18:05:31.826Z,99366.22
2023-05-12T18:07:58.157Z,99364.38
2023-05-12T18:10:24.564Z,99360.19
2023-05-12T18:12:51.480Z,99362.44
2023-05-12T18:15:18.189Z,99371.66
2023-05-12T18:17:44.919Z,99375.47
2023-05-12T18:20:11.580Z,99367.88
2023-05-12T18:22:38.063Z,99373.34
2023-05-12T18:25:04.728Z,99380.63
2023-05-12T18:27:31.249Z,99386.63
2023-05-12T18:29:57.557Z,99374.44
2023-05-12T18:32:25.020Z,99374.72
2023-05-12T18:34:52.586Z,99385.47
2023-05-12T18:37:19.136Z,99389.78
2023-05-12T18:39:45.705Z,99378.25
2023-05-12T18:42:12.128Z,99392.53
2023-05-12T18:44:38.566Z,99395.97
2023-05-12T18:47:05.927Z,99375.22
2023-05-12T18:49:32.616Z,99395.91
2023-05-12T18:51:59.007Z,99398.34
2023-05-12T18:54:25.409Z,99390.22
2023-05-12T18:56:51.732Z,99399.16
2023-05-12T18:59:18.098Z,99411.28
2023-05-12T19:01:44.797Z,99407.25
2023-05-12T19:04:11.357Z,99415.59
2023-05-12T19:06:37.757Z,99394.72
2023-05-12T19:09:05.319Z,99414.06
2023-05-12T19:11:31.630Z,99421.69
2023-05-12T19:13:58.266Z,99420.97
2023-05-12T19:16:24.633Z,99414.50
2023-05-12T19:18:51.168Z,99415.28
2023-05-12T19:21:18.058Z,99431.31
2023-05-12T19:23:44.473Z,99439.63
2023-05-12T19:26:11.044Z,99437.72
2023-05-12T19:28:37.463Z,99407.44
2023-05-12T19:31:04.402Z,99440.28
2023-05-12T19:33:30.849Z,99425.03
2023-05-12T19:35:57.390Z,99446.69
2023-05-12T19:38:23.777Z,99439.94
2023-05-12T19:40:50.103Z,99434.31
2023-05-12T19:43:16.599Z,99432.88
2023-05-12T19:45:43.301Z,99429.75
2023-05-12T19:48:10.141Z,99427.72
2023-05-12T19:50:36.791Z,99443.13
2023-05-12T19:53:03.438Z,99446.63
2023-05-12T19:55:30.163Z,99451.22
2023-05-12T19:57:56.539Z,99438.00
2023-05-12T20:00:22.867Z,99452.09
2023-05-12T20:02:49.397Z,99444.88
2023-05-12T20:05:15.892Z,99442.59
2023-05-12T20:07:42.421Z,99447.50
2023-05-12T20:10:09.355Z,99463.50
2023-05-12T20:12:35.759Z,99453.03
2023-05-12T20:15:02.275Z,99458.34
2023-05-12T20:17:28.720Z,99452.88
2023-05-12T20:19:55.042Z,99462.00
2023-05-12T20:22:21.486Z,99459.97
2023-05-12T20:24:47.794Z,99455.97
2023-05-12T20:27:14.149Z,99454.38
2023-05-12T20:29:41.153Z,99441.97
2023-05-12T20:32:07.801Z,99455.22
2023-05-12T20:34:34.387Z,99463.38
2023-05-12T20:37:00.718Z,99454.72
2023-05-12T20:39:27.226Z,99457.19
2023-05-12T20:41:53.616Z,99473.16
2023-05-12T20:44:19.977Z,99478.78
2023-05-12T20:46:46.514Z,99477.31
2023-05-12T20:49:12.901Z,99475.00
2023-05-12T20:51:39.488Z,99477.06
2023-05-12T20:54:05.997Z,99472.00
2023-05-12T20:56:32.384Z,99465.13
2023-05-12T20:58:58.787Z,99477.28
2023-05-12T21:01:25.109Z,99479.91
2023-05-12T21:03:51.783Z,99480.16
2023-05-12T21:06:18.428Z,99476.03
2023-05-12T21:08:44.807Z,99490.94
2023-05-12T21:11:18.618Z,99494.41
2023-05-12T21:13:45.959Z,99505.75
2023-05-12T21:16:12.496Z,99503.81
2023-05-12T21:18:39.128Z,99505.63
2023-05-12T21:21:06.206Z,99504.88
2023-05-12T21:23:32.779Z,99517.16
2023-05-12T21:25:59.150Z,99518.63
2023-05-12T21:28:25.524Z,99523.28
2023-05-12T21:30:51.919Z,99526.13
2023-05-12T21:33:18.392Z,99521.28
2023-05-12T21:35:44.769Z,99515.41
2023-05-12T21:38:11.170Z,99511.16
2023-05-12T21:40:38.214Z,99519.84
2023-05-12T21:43:04.639Z,99531.16
2023-05-12T21:45:31.018Z,99506.00
2023-05-12T21:47:57.384Z,99505.56
2023-05-12T21:50:23.832Z,99505.78
2023-05-12T21:52:50.380Z,99513.91
2023-05-12T21:55:16.996Z,99505.22
2023-05-12T21:57:43.398Z,99517.50
2023-05-12T22:00:10.979Z,99514.00
2023-05-12T22:02:37.318Z,99495.53
2023-05-12T22:05:03.984Z,99481.50
2023-05-12T22:07:30.572Z,99491.00
2023-05-12T22:09:56.981Z,99501.25
2023-05-12T22:12:23.380Z,99510.25
2023-05-12T22:14:49.813Z,99507.16
2023-05-12T22:17:16.116Z,99504.22
2023-05-12T22:19:42.592Z,99513.69
2023-05-12T22:22:09.058Z,99513.91
2023-05-12T22:24:35.372Z,99492.44
2023-05-12T22:27:02.026Z,99499.94
2023-05-12T22:29:28.332Z,99491.78
2023-05-12T22:31:54.745Z,99481.53
2023-05-12T22:34:21.095Z,99477.44
2023-05-12T22:36:47.466Z,99485.81
2023-05-12T22:39:14.048Z,99488.03
2023-05-12T22:41:40.852Z,99501.25
2023-05-12T22:44:07.251Z,99505.56
2023-05-12T22:46:33.873Z,99522.00
2023-05-12T22:49:00.285Z,99519.34
2023-05-12T22:51:26.599Z,99520.47
2023-05-12T22:53:53.092Z,99530.47
2023-05-12T22:56:19.438Z,99518.16
2023-05-12T22:58:45.842Z,99519.00
2023-05-12T23:01:12.291Z,99509.72
2023-05-12T23:03:38.721Z,99516.56
2023-05-12T23:06:05.236Z,99525.59
2023-05-12T23:08:31.655Z,99513.75
2023-05-12T23:10:57.968Z,99517.22
2023-05-12T23:13:24.279Z,99526.25
2023-05-12T23:15:50.696Z,99528.78
2023-05-12T23:18:16.997Z,99536.00
2023-05-12T23:20:43.389Z,99531.47
2023-05-12T23:23:09.694Z,99524.22
2023-05-12T23:25:36.057Z,99538.03
2023-05-12T23:28:02.550Z,99527.69
2023-05-12T23:30:28.937Z,99538.78
2023-05-12T23:32:55.344Z,99539.34
2023-05-12T23:35:21.836Z,99540.06
2023-05-12T23:37:48.240Z,99529.72
2023-05-12T23:40:14.582Z,99529.59
2023-05-12T23:42:40.992Z,99534.16
2023-05-12T23:45:07.803Z,99536.59
2023-05-12T23:47:34.204Z,99532.47
2023-05-12T23:50:00.641Z,99539.53
2023-05-12T23:52:27.439Z,99549.81
2023-05-12T23:54:53.836Z,99539.03
2023-05-12T23:57:20.217Z,99539.97
2023-05-12T23:59:46.552Z,99542.16
